Time;durP1;ratioP1;P1;durP2;ratioP2;P2;SDS_P1;SDS_P2;PMS_P1;PMS_P2;Temp;Humidity;BMP_temperature;BMP_pressure;BME280_temperature;BME280_humidity;BME280_pressure;Samples;Min_cycle;Max_cycle;Signal;HPM_P1;HPM_P2
2022/07/05 00:00:07;;;;;;;5.27;2.03;;;;;;;14.65;82.67;102018.81;4951222;28;20197;-72
2022/07/05 00:02:38;;;;;;;5.07;2.10;;;;;;;14.62;82.97;102014.47;4951435;28;20204;-71
2022/07/05 00:05:03;;;;;;;5.57;2.40;;;;;;;14.62;83.57;102022.22;4950932;28;20224;-72
2022/07/05 00:07:29;;;;;;;9.63;2.53;;;;;;;14.62;83.38;102018.75;4951142;28;20282;-72
2022/07/05 00:09:56;;;;;;;4.63;2.63;;;;;;;14.62;83.86;102024.78;4949235;29;20615;-72
2022/07/05 00:12:24;;;;;;;4.77;2.50;;;;;;;14.58;83.94;102022.97;4951335;28;20212;-72
2022/07/05 00:14:50;;;;;;;8.13;2.87;;;;;;;14.57;84.29;102021.25;4950599;29;20578;-72
2022/07/05 00:17:16;;;;;;;3.97;2.60;;;;;;;14.57;84.14;102017.78;4951158;28;20287;-72
2022/07/05 00:19:42;;;;;;;8.37;2.57;;;;;;;14.55;84.58;102020.31;4949229;29;20224;-72
2022/07/05 00:22:08;;;;;;;4.87;2.27;;;;;;;14.53;84.14;102011.69;4950527;28;20654;-72
2022/07/05 00:24:34;;;;;;;5.40;2.50;;;;;;;14.50;84.37;102016.78;4949820;29;20229;-72
2022/07/05 00:27:00;;;;;;;3.97;2.20;;;;;;;14.47;84.65;102018.41;4950707;28;20228;-72
2022/07/05 00:29:25;;;;;;;5.47;2.87;;;;;;;14.46;85.01;102014.94;4950968;29;20189;-72
2022/07/05 00:31:51;;;;;;;4.63;2.30;;;;;;;14.47;84.33;102021.00;4950665;28;20240;-72
2022/07/05 00:34:16;;;;;;;4.27;2.03;;;;;;;14.44;84.88;102014.06;4982244;28;20189;-72
2022/07/05 00:36:42;;;;;;;3.20;2.47;;;;;;;14.42;85.19;102014.88;4951072;28;20276;-72
2022/07/05 00:39:08;;;;;;;4.10;2.50;;;;;;;14.42;85.00;102012.28;4950552;29;20192;-72
2022/07/05 00:41:34;;;;;;;6.80;2.70;;;;;;;14.36;85.19;102010.44;4950054;29;20189;-72
2022/07/05 00:44:02;;;;;;;3.93;2.47;;;;;;;14.35;84.62;102013.84;4949378;29;20272;-72
2022/07/05 00:46:29;;;;;;;5.10;2.87;;;;;;;14.31;84.66;102021.50;4951158;28;20181;-72
2022/07/05 00:48:55;;;;;;;5.30;2.27;;;;;;;14.26;85.15;102012.75;4950596;28;20188;-72
2022/07/05 00:51:21;;;;;;;4.43;2.53;;;;;;;14.20;85.20;102015.16;4949305;29;20189;-72
2022/07/05 00:53:48;;;;;;;4.47;2.33;;;;;;;14.14;84.84;102025.34;4949448;29;20181;-72
2022/07/05 00:56:14;;;;;;;7.23;2.20;;;;;;;14.07;85.70;102031.16;4950550;28;20216;-72
2022/07/05 00:58:39;;;;;;;3.47;2.03;;;;;;;14.01;85.42;102033.59;4949405;29;20201;-72
2022/07/05 01:01:08;;;;;;;4.43;2.60;;;;;;;14.03;85.42;102029.34;4948788;29;20726;-72
2022/07/05 01:03:34;;;;;;;6.33;2.40;;;;;;;13.98;85.30;102031.81;4950820;28;20177;-72
2022/07/05 01:06:05;;;;;;;5.10;2.30;;;;;;;13.97;85.50;102022.34;4948912;29;20243;-72
2022/07/05 01:08:33;;;;;;;7.40;2.80;;;;;;;13.94;86.01;102019.69;4965719;28;20204;-72
2022/07/05 01:10:59;;;;;;;3.90;2.33;;;;;;;13.90;85.78;102023.03;4948797;29;20193;-72
2022/07/05 01:13:25;;;;;;;6.20;2.83;;;;;;;13.77;85.95;102018.41;4948973;29;20284;-72
2022/07/05 01:15:51;;;;;;;6.97;2.50;;;;;;;13.80;86.42;102020.19;4950471;28;20193;-72
2022/07/05 01:18:19;;;;;;;5.10;2.63;;;;;;;13.81;86.38;102019.38;4948250;28;20209;-72
2022/07/05 01:20:48;;;;;;;7.63;2.77;;;;;;;13.82;86.72;102021.09;4952977;29;20283;-72
2022/07/05 01:23:14;;;;;;;4.67;2.37;;;;;;;13.80;86.88;102025.31;4953853;28;20208;-72
2022/07/05 01:25:40;;;;;;;5.10;2.87;;;;;;;13.79;86.47;102016.75;4952086;29;20233;-72
2022/07/05 01:28:05;;;;;;;3.33;2.10;;;;;;;13.76;86.72;102014.09;4952095;29;20927;-72
2022/07/05 01:30:34;;;;;;;5.03;2.53;;;;;;;13.77;86.79;102014.97;4953984;28;20271;-72
2022/07/05 01:33:00;;;;;;;4.83;2.53;;;;;;;13.73;86.78;102019.19;4952884;29;20275;-72
2022/07/05 01:35:25;;;;;;;4.17;2.53;;;;;;;13.72;86.51;102014.84;4953713;28;20735;-72
2022/07/05 01:37:51;;;;;;;5.60;2.67;;;;;;;13.72;86.37;102021.72;4985038;28;20216;-71
2022/07/05 01:40:19;;;;;;;7.70;2.43;;;;;;;13.67;86.71;102024.16;4952124;29;20193;-72
2022/07/05 01:42:46;;;;;;;5.00;2.70;;;;;;;13.66;86.58;102021.53;4984966;28;20199;-72
2022/07/05 01:45:12;;;;;;;4.67;2.37;;;;;;;13.62;86.68;102017.16;4951943;29;20250;-71
2022/07/05 01:47:44;;;;;;;4.10;2.47;;;;;;;13.59;87.06;102017.97;4952552;29;20217;-72
2022/07/05 01:50:13;;;;;;;5.93;2.47;;;;;;;13.62;87.05;102017.16;4953614;29;20215;-72
2022/07/05 01:52:42;;;;;;;4.63;2.53;;;;;;;13.62;87.68;102017.16;4952409;29;20204;-71
2022/07/05 01:55:07;;;;;;;4.70;2.97;;;;;;;13.61;87.36;102021.44;4952825;29;20268;-72
2022/07/05 01:57:33;;;;;;;5.97;2.37;;;;;;;13.59;87.65;102012.81;4953580;29;20216;-72
2022/07/05 01:59:58;;;;;;;6.23;2.50;;;;;;;13.57;87.89;102024.75;4954005;29;20185;-71
2022/07/05 02:02:24;;;;;;;7.23;2.67;;;;;;;13.54;87.44;102022.09;4953583;29;20244;-72
2022/07/05 02:04:49;;;;;;;4.70;2.77;;;;;;;13.50;87.88;102027.13;4953662;28;20212;-72
2022/07/05 02:07:15;;;;;;;7.60;2.57;;;;;;;13.44;87.60;102020.09;4984221;28;20287;-72
2022/07/05 02:09:41;;;;;;;4.83;2.47;;;;;;;13.36;87.88;102020.75;4984303;28;20193;-72
2022/07/05 02:12:08;;;;;;;3.97;2.37;;;;;;;13.32;87.80;102024.06;4929470;29;20225;-72
2022/07/05 02:14:34;;;;;;;4.80;2.40;;;;;;;13.27;87.55;102017.91;4983661;28;20240;-72
2022/07/05 02:17:02;;;;;;;4.70;2.40;;;;;;;13.20;87.78;102022.00;4984628;28;20650;-72
2022/07/05 02:19:28;;;;;;;5.83;2.23;;;;;;;13.20;87.30;102024.59;4951628;29;20562;-72
2022/07/05 02:21:55;;;;;;;4.07;2.13;;;;;;;13.25;87.49;102020.44;4984203;28;20189;-72
2022/07/05 02:24:21;;;;;;;4.50;2.47;;;;;;;13.14;87.60;102023.53;4983946;28;20247;-72
2022/07/05 02:26:54;;;;;;;5.77;2.60;;;;;;;13.11;87.39;102024.34;4984067;28;20212;-72
2022/07/05 02:29:20;;;;;;;3.30;1.97;;;;;;;13.07;87.93;102025.06;4982671;28;20575;-72
2022/07/05 02:31:47;;;;;;;4.57;2.30;;;;;;;13.04;87.51;102030.16;4965939;28;20181;-72
2022/07/05 02:34:13;;;;;;;4.87;2.30;;;;;;;12.98;87.70;102032.53;4984089;28;20252;-72
2022/07/05 02:36:38;;;;;;;5.97;2.00;;;;;;;12.89;87.86;102027.97;4952832;28;20227;-72
2022/07/05 02:39:07;;;;;;;3.80;2.20;;;;;;;12.86;88.21;102037.28;4967706;28;20256;-72
2022/07/05 02:41:33;;;;;;;3.97;2.30;;;;;;;12.85;88.03;102033.84;4983464;28;20185;-73
2022/07/05 02:43:59;;;;;;;5.83;2.20;;;;;;;12.77;88.21;102035.31;4951678;29;20236;-73
2022/07/05 02:46:27;;;;;;;2.37;2.10;;;;;;;12.82;88.18;102038.03;4983509;28;20641;-73
2022/07/05 02:48:55;;;;;;;4.97;2.40;;;;;;;12.81;88.22;102039.72;4951421;29;20730;-73
2022/07/05 02:51:21;;;;;;;5.20;2.40;;;;;;;12.72;88.53;102036.03;4984035;28;20284;-73
2022/07/05 02:53:49;;;;;;;4.10;2.10;;;;;;;12.69;88.56;102033.34;4951006;29;20193;-73
2022/07/05 02:56:16;;;;;;;3.33;2.20;;;;;;;12.70;88.57;102048.81;4951964;29;20256;-71
2022/07/05 02:58:41;;;;;;;3.17;2.23;;;;;;;12.61;88.66;102045.97;4983300;28;20292;-73
2022/07/05 03:01:08;;;;;;;3.30;2.33;;;;;;;12.59;88.65;102041.59;4983965;28;20185;-73
2022/07/05 03:03:37;;;;;;;4.67;2.43;;;;;;;12.57;88.64;102049.25;4983421;28;20193;-73
2022/07/05 03:06:02;;;;;;;2.80;2.30;;;;;;;12.62;88.58;102057.09;4952690;28;20217;-73
2022/07/05 03:08:30;;;;;;;5.13;3.37;;;;;;;12.64;88.09;102058.03;4984009;28;20205;-73
2022/07/05 03:10:56;;;;;;;5.70;3.67;;;;;;;12.60;88.25;102053.63;4970040;28;20180;-73
2022/07/05 03:13:22;;;;;;;6.13;3.57;;;;;;;12.57;88.69;102061.22;4963528;28;20682;-73
2022/07/05 03:15:47;;;;;;;6.00;3.10;;;;;;;12.56;88.29;102057.81;4951819;28;20531;-73
2022/07/05 03:18:17;;;;;;;3.63;2.70;;;;;;;12.56;88.48;102073.22;4983301;28;20213;-73
2022/07/05 03:20:42;;;;;;;5.07;2.53;;;;;;;12.54;88.62;102061.16;4982616;28;20208;-73
2022/07/05 03:23:08;;;;;;;3.83;2.90;;;;;;;12.59;88.91;102054.47;4967459;28;20185;-73
2022/07/05 03:25:40;;;;;;;4.67;3.10;;;;;;;12.63;89.25;102053.72;4951122;29;20212;-73
2022/07/05 03:28:07;;;;;;;5.77;3.50;;;;;;;12.78;90.97;102055.06;4982678;28;20232;-73
2022/07/05 03:30:33;;;;;;;5.27;3.77;;;;;;;12.82;90.54;102050.88;4950643;29;20189;-73
2022/07/05 03:32:59;;;;;;;5.00;3.37;;;;;;;12.82;91.12;102045.75;4951556;29;20181;-73
2022/07/05 03:35:27;;;;;;;7.27;2.80;;;;;;;12.87;91.16;102046.75;4951102;29;20223;-72
2022/07/05 03:37:53;;;;;;;5.40;3.67;;;;;;;12.86;91.26;102048.44;4950290;29;20724;-72
2022/07/05 03:40:20;;;;;;;6.43;3.53;;;;;;;12.89;91.27;102055.34;4950962;29;20256;-73
2022/07/05 03:42:45;;;;;;;7.67;3.47;;;;;;;12.93;91.18;102053.78;4982059;28;20825;-73
2022/07/05 03:45:11;;;;;;;4.80;3.27;;;;;;;12.93;90.90;102047.78;4950733;29;20220;-71
2022/07/05 03:47:38;;;;;;;7.53;3.67;;;;;;;13.00;90.69;102055.72;4983105;28;20205;-73
2022/07/05 03:50:06;;;;;;;8.60;3.77;;;;;;;13.04;91.07;102057.56;4981799;28;20219;-72
2022/07/05 03:52:33;;;;;;;6.03;3.70;;;;;;;13.08;91.06;102051.66;4983013;28;20276;-73
2022/07/05 03:54:58;;;;;;;9.20;3.80;;;;;;;13.11;91.11;102052.63;4951242;28;20280;-73
2022/07/05 03:57:24;;;;;;;7.80;3.67;;;;;;;13.15;91.50;102056.16;4950703;29;20223;-73
2022/07/05 03:59:51;;;;;;;4.83;3.17;;;;;;;13.19;91.05;102051.16;4982005;28;20196;-73
2022/07/05 04:02:18;;;;;;;7.13;3.73;;;;;;;13.21;91.05;102051.19;4951706;28;20597;-73
2022/07/05 04:04:44;;;;;;;7.40;3.37;;;;;;;13.25;90.82;102055.59;4950663;29;20275;-73
2022/07/05 04:07:09;;;;;;;6.70;4.10;;;;;;;13.28;91.06;102051.41;4949853;29;20213;-73
2022/07/05 04:09:36;;;;;;;6.03;3.80;;;;;;;13.34;90.58;102054.13;4956963;28;20556;-73
2022/07/05 04:12:03;;;;;;;6.30;3.33;;;;;;;13.38;90.82;102058.53;4987696;28;20182;-73
2022/07/05 04:14:31;;;;;;;6.27;3.70;;;;;;;13.43;90.39;102056.97;4982723;28;20177;-73
2022/07/05 04:16:57;;;;;;;6.03;3.60;;;;;;;13.47;90.31;102053.66;4982703;28;20247;-72
2022/07/05 04:19:23;;;;;;;7.33;4.17;;;;;;;13.50;89.80;102053.75;4982376;28;20250;-72
2022/07/05 04:21:50;;;;;;;8.97;4.30;;;;;;;13.56;90.05;102053.91;4950390;28;20181;-72
2022/07/05 04:24:15;;;;;;;6.57;3.87;;;;;;;13.60;90.16;102054.84;4981855;28;20363;-72
2022/07/05 04:26:41;;;;;;;6.83;3.70;;;;;;;13.65;89.43;102056.72;4951467;28;20251;-72
2022/07/05 04:29:07;;;;;;;7.47;4.00;;;;;;;13.72;89.80;102052.59;4982358;28;20562;-72
2022/07/05 04:31:36;;;;;;;6.20;3.90;;;;;;;13.78;88.61;102061.34;4981627;28;20659;-72
2022/07/05 04:34:02;;;;;;;5.93;4.07;;;;;;;13.84;88.91;102056.34;4949722;29;20239;-72
2022/07/05 04:36:31;;;;;;;5.23;3.50;;;;;;;13.92;88.05;102053.97;4950677;28;20192;-72
2022/07/05 04:38:58;;;;;;;5.53;3.73;;;;;;;13.99;87.97;102046.44;4949705;28;20193;-72
2022/07/05 04:41:25;;;;;;;9.37;3.73;;;;;;;14.04;87.66;102046.56;4949331;29;20597;-72
2022/07/05 04:43:52;;;;;;;5.20;3.30;;;;;;;14.15;87.82;102056.28;4982529;28;20189;-72
2022/07/05 04:46:18;;;;;;;3.97;3.30;;;;;;;14.22;86.86;102060.78;4949645;29;20221;-72
2022/07/05 04:48:44;;;;;;;5.27;3.07;;;;;;;14.32;87.43;102057.56;4950031;29;20193;-73
2022/07/05 04:51:11;;;;;;;6.37;3.67;;;;;;;14.35;86.70;102060.25;4981567;28;20214;-73
2022/07/05 04:53:37;;;;;;;6.23;3.57;;;;;;;14.41;86.30;102068.09;4952357;28;20271;-73
2022/07/05 04:56:03;;;;;;;5.30;3.67;;;;;;;14.53;86.36;102065.81;4986421;28;20231;-73
2022/07/05 04:58:29;;;;;;;14.23;4.37;;;;;;;14.63;86.34;102075.50;4953314;28;20966;-73
2022/07/05 05:00:54;;;;;;;5.10;3.30;;;;;;;14.73;86.05;102072.28;4953113;28;20239;-73
2022/07/05 05:03:20;;;;;;;4.87;3.60;;;;;;;14.84;85.53;102076.00;4953823;29;20228;-73
2022/07/05 05:05:45;;;;;;;7.47;3.40;;;;;;;14.98;84.82;102076.28;4953991;28;20219;-73
2022/07/05 05:08:11;;;;;;;5.13;3.30;;;;;;;15.09;84.78;102072.19;4954046;28;20251;-73
2022/07/05 05:10:36;;;;;;;5.33;3.30;;;;;;;15.21;83.71;102068.19;4957791;28;20193;-73
2022/07/05 05:13:02;;;;;;;5.03;3.47;;;;;;;15.28;83.25;102077.78;4953248;29;20193;-73
2022/07/05 05:15:27;;;;;;;3.03;2.70;;;;;;;15.39;83.05;102080.63;4954860;28;20208;-73
2022/07/05 05:17:53;;;;;;;6.13;3.17;;;;;;;15.44;82.60;102081.56;4955316;28;20571;-73
2022/07/05 05:20:19;;;;;;;6.50;3.20;;;;;;;15.49;81.45;102078.25;4954224;28;20287;-73
2022/07/05 05:22:46;;;;;;;3.53;2.80;;;;;;;15.61;81.12;102083.63;4954946;28;20193;-73
2022/07/05 05:25:12;;;;;;;6.07;3.17;;;;;;;15.66;80.96;102088.91;4953074;29;20213;-73
2022/07/05 05:27:45;;;;;;;6.50;3.03;;;;;;;15.79;80.62;102078.81;4954793;28;20228;-73
2022/07/05 05:30:12;;;;;;;6.93;2.97;;;;;;;15.86;79.71;102072.03;4954104;28;20229;-73
2022/07/05 05:32:37;;;;;;;4.20;2.70;;;;;;;16.05;79.67;102081.84;4953032;29;20235;-73
2022/07/05 05:35:04;;;;;;;5.90;2.90;;;;;;;15.97;78.72;102081.72;4956999;28;20292;-72
2022/07/05 05:37:29;;;;;;;3.33;2.00;;;;;;;16.15;78.17;102079.44;4954138;28;20214;-72
2022/07/05 05:39:54;;;;;;;4.70;2.60;;;;;;;16.38;77.69;102078.09;4954379;29;20552;-73
2022/07/05 05:42:20;;;;;;;4.13;2.13;;;;;;;16.48;76.91;102071.41;4954153;28;20654;-73
2022/07/05 05:44:45;;;;;;;3.40;2.43;;;;;;;16.59;76.71;102077.59;4954769;29;20728;-73
2022/07/05 05:47:11;;;;;;;5.67;2.77;;;;;;;16.75;76.28;102088.19;4953255;28;20208;-73
2022/07/05 05:49:36;;;;;;;5.43;2.40;;;;;;;16.90;75.80;102082.34;4954633;28;20281;-73
2022/07/05 05:52:02;;;;;;;3.63;2.43;;;;;;;17.01;74.87;102084.25;4954527;28;20201;-73
2022/07/05 05:54:27;;;;;;;6.03;2.50;;;;;;;17.04;73.53;102096.34;4953970;29;20197;-73
2022/07/05 05:56:53;;;;;;;3.80;2.07;;;;;;;17.12;73.53;102092.13;4954634;28;20287;-73
2022/07/05 05:59:19;;;;;;;6.60;1.90;;;;;;;17.19;72.58;102092.25;4954028;28;20220;-73
2022/07/05 06:01:44;;;;;;;3.57;2.27;;;;;;;17.32;72.77;102107.06;4953854;28;20615;-73
2022/07/05 06:04:10;;;;;;;5.07;2.47;;;;;;;17.44;72.14;102102.06;4951711;28;20186;-73
2022/07/05 06:06:35;;;;;;;4.43;2.10;;;;;;;17.47;71.61;102099.53;4953839;28;20744;-73
2022/07/05 06:09:01;;;;;;;4.80;1.93;;;;;;;17.40;71.21;102100.28;4953955;28;20213;-71
2022/07/05 06:11:26;;;;;;;4.40;2.10;;;;;;;17.57;71.00;102103.06;4952106;29;20204;-73
2022/07/05 06:13:52;;;;;;;4.40;2.13;;;;;;;17.65;70.66;102104.03;4954503;28;20181;-72
2022/07/05 06:16:17;;;;;;;7.23;1.97;;;;;;;17.72;70.70;102103.22;4953679;28;20557;-73
2022/07/05 06:18:43;;;;;;;6.33;1.97;;;;;;;17.84;69.58;102100.78;4954533;28;20201;-72
2022/07/05 06:21:08;;;;;;;4.73;2.10;;;;;;;18.04;70.04;102104.41;4985169;28;20991;-73
2022/07/05 06:23:33;;;;;;;5.23;1.90;;;;;;;18.21;69.40;102115.81;4954243;28;20197;-73
2022/07/05 06:25:59;;;;;;;3.33;1.70;;;;;;;18.33;68.07;102118.56;4954031;28;20284;-73
2022/07/05 06:28:24;;;;;;;6.10;2.13;;;;;;;18.37;67.81;102112.53;4985076;28;20239;-73
2022/07/05 06:30:50;;;;;;;5.03;2.00;;;;;;;18.45;67.60;102114.34;4953911;28;20228;-73
2022/07/05 06:33:15;;;;;;;2.37;1.70;;;;;;;18.38;66.12;102109.94;4953393;28;20185;-73
2022/07/05 06:35:41;;;;;;;4.57;1.47;;;;;;;18.40;65.40;102115.16;4954172;28;20184;-73
2022/07/05 06:38:08;;;;;;;2.90;1.43;;;;;;;18.60;65.22;102113.59;4953327;28;20213;-73
2022/07/05 06:40:36;;;;;;;2.53;1.37;;;;;;;18.86;65.77;102114.59;4953845;29;20204;-73
2022/07/05 06:43:05;;;;;;;2.93;1.40;;;;;;;18.81;64.99;102126.69;4953936;28;20840;-72
2022/07/05 06:45:45;;;;;;;3.57;1.43;;;;;;;19.03;64.55;102115.59;4985534;28;20303;-73
2022/07/05 06:48:11;;;;;;;4.90;1.60;;;;;;;19.13;64.31;102114.75;4952094;29;20304;-73
2022/07/05 06:50:39;;;;;;;3.53;1.67;;;;;;;19.24;62.34;102120.91;4952707;28;20586;-73
2022/07/05 06:53:06;;;;;;;6.10;1.77;;;;;;;19.29;61.77;102117.47;4953950;28;20244;-73
2022/07/05 06:55:32;;;;;;;4.13;1.73;;;;;;;19.22;61.56;102117.41;4953191;28;20181;-73
2022/07/05 06:58:03;;;;;;;3.03;1.80;;;;;;;19.35;61.89;102112.28;4953285;28;20208;-73
2022/07/05 07:00:29;;;;;;;4.47;1.77;;;;;;;19.57;61.13;102115.88;4952672;28;20189;-73
2022/07/05 07:02:55;;;;;;;2.40;1.47;;;;;;;19.71;60.81;102104.63;4953642;29;20566;-73
2022/07/05 07:05:21;;;;;;;3.30;1.43;;;;;;;19.34;60.77;102118.34;4952957;29;20264;-73
2022/07/05 07:10:31;;;;;;;4.33;1.60;;;;;;;19.59;61.88;102117.59;4967939;28;20188;-73
2022/07/05 07:13:01;;;;;;;4.83;1.47;;;;;;;19.76;61.09;102122.84;4970923;28;20180;-73
2022/07/05 07:15:26;;;;;;;4.37;1.40;;;;;;;19.60;60.75;102113.25;4972287;28;20180;-73
2022/07/05 07:17:52;;;;;;;4.57;1.53;;;;;;;20.00;60.85;102115.94;4970840;28;20207;-74
2022/07/05 07:20:18;;;;;;;4.20;1.20;;;;;;;20.13;58.93;102117.72;4972351;28;20254;-73
2022/07/05 07:22:43;;;;;;;4.00;1.50;;;;;;;19.92;58.85;102115.06;4987829;28;20246;-73
2022/07/05 07:25:11;;;;;;;3.70;1.10;;;;;;;20.40;59.08;102112.53;4972145;28;20263;-73
2022/07/05 07:27:51;;;;;;;2.37;1.23;;;;;;;20.25;58.33;102107.34;4972114;28;20205;-73
2022/07/05 07:30:20;;;;;;;3.20;1.43;;;;;;;20.39;58.67;102107.31;4986251;28;20196;-73
2022/07/05 07:32:46;;;;;;;2.33;1.23;;;;;;;20.23;58.06;102103.84;4971715;28;20184;-73
2022/07/05 07:35:12;;;;;;;4.13;1.20;;;;;;;20.21;57.25;102113.41;4971430;28;20176;-73
2022/07/05 07:37:38;;;;;;;3.53;1.30;;;;;;;20.43;57.95;102112.53;5003319;28;20713;-73
2022/07/05 07:40:05;;;;;;;4.90;1.17;;;;;;;20.77;56.95;102110.75;5002456;28;20192;-73
2022/07/05 07:42:30;;;;;;;2.60;1.30;;;;;;;20.58;56.34;102114.25;4971596;28;20875;-73
2022/07/05 07:44:56;;;;;;;2.77;1.40;;;;;;;20.74;55.66;102105.56;4969945;28;20223;-73
2022/07/05 07:47:22;;;;;;;4.30;1.10;;;;;;;21.27;55.38;102096.72;4986463;28;20212;-73
2022/07/05 07:49:47;;;;;;;3.67;1.13;;;;;;;21.65;54.89;102105.22;4971804;28;20716;-73
2022/07/05 07:52:13;;;;;;;1.67;1.03;;;;;;;21.72;53.05;102095.66;4970889;28;20732;-74
2022/07/05 07:54:38;;;;;;;4.10;0.90;;;;;;;21.27;52.77;102101.94;4971527;28;20208;-73
2022/07/05 07:57:05;;;;;;;2.87;0.90;;;;;;;21.05;50.52;102100.28;4954491;28;20713;-73
2022/07/05 07:59:34;;;;;;;1.37;0.73;;;;;;;20.84;50.11;102092.50;4950844;29;20208;-73
2022/07/05 08:01:59;;;;;;;1.23;0.70;;;;;;;21.32;48.80;102099.31;4951744;28;20700;-73
2022/07/05 08:04:25;;;;;;;4.53;0.90;;;;;;;21.55;48.56;102095.72;4952102;28;20196;-74
2022/07/05 08:06:51;;;;;;;5.33;0.90;;;;;;;21.36;47.62;102099.31;4952101;28;20213;-74
2022/07/05 08:09:17;;;;;;;3.17;0.60;;;;;;;21.15;46.84;102096.78;4944218;29;20196;-72
2022/07/05 08:11:43;;;;;;;1.43;0.70;;;;;;;21.76;45.19;102102.59;4941721;28;20237;-73
2022/07/05 08:14:08;;;;;;;1.87;0.53;;;;;;;22.05;45.71;102100.66;4924447;28;20192;-73
2022/07/05 08:16:34;;;;;;;2.70;0.90;;;;;;;22.55;45.22;102110.72;4945776;28;20184;-73
2022/07/05 08:21:44;;;;;;;2.47;0.70;;;;;;;22.67;44.44;102106.25;4982695;28;20184;-73
2022/07/05 08:24:13;;;;;;;1.97;0.83;;;;;;;22.83;45.00;102105.19;4951519;28;20193;-73
2022/07/05 08:26:39;;;;;;;2.00;0.60;;;;;;;23.15;43.52;102104.84;4951033;28;20220;-72
2022/07/05 08:29:10;;;;;;;1.23;0.77;;;;;;;22.94;43.36;102111.19;4951057;28;20217;-70
2022/07/05 08:31:42;;;;;;;0.90;0.60;;;;;;;22.37;43.88;102114.31;4950447;28;20181;-72
2022/07/05 08:34:09;;;;;;;1.47;0.60;;;;;;;22.30;43.83;102118.72;4952254;28;20181;-72
2022/07/05 08:36:35;;;;;;;3.23;0.70;;;;;;;22.53;42.68;102113.34;4949659;28;20188;-72
2022/07/05 08:39:00;;;;;;;1.33;0.60;;;;;;;22.85;42.35;102113.91;4950052;28;20193;-73
2022/07/05 08:41:26;;;;;;;1.70;0.60;;;;;;;22.71;42.25;102123.63;4949412;28;20240;-73
2022/07/05 08:43:52;;;;;;;2.77;0.60;;;;;;;22.60;41.85;102120.22;4950908;28;20189;-72
2022/07/05 08:46:18;;;;;;;1.80;0.40;;;;;;;22.00;42.27;102118.97;4951293;28;20227;-73
2022/07/05 08:48:47;;;;;;;2.80;0.60;;;;;;;22.18;43.96;102117.94;4950216;28;20212;-73
2022/07/05 08:51:17;;;;;;;1.93;1.07;;;;;;;22.34;43.19;102122.19;4951022;28;20185;-73
2022/07/05 08:53:44;;;;;;;1.40;0.67;;;;;;;22.89;40.90;102120.84;4950757;28;20548;-73
2022/07/05 08:56:12;;;;;;;0.60;0.53;;;;;;;23.53;39.87;102107.88;4950977;28;20228;-73
2022/07/05 08:58:38;;;;;;;3.10;0.80;;;;;;;22.84;40.37;102112.16;4950456;28;20443;-72
2022/07/05 09:01:05;;;;;;;2.07;0.70;;;;;;;22.22;42.56;102119.66;4949765;28;20197;-73
2022/07/05 09:03:38;;;;;;;4.03;0.90;;;;;;;21.35;44.15;102118.44;4946361;29;20307;-73
2022/07/05 09:06:08;;;;;;;2.53;0.77;;;;;;;21.81;43.29;102124.31;4951183;28;20686;-73
2022/07/05 09:08:39;;;;;;;2.20;0.67;;;;;;;21.75;43.50;102127.81;4951090;28;20209;-73
2022/07/05 09:11:13;;;;;;;2.07;0.70;;;;;;;21.82;43.83;102121.69;4969045;28;20235;-72
2022/07/05 09:13:42;;;;;;;4.20;1.00;;;;;;;21.66;44.67;102121.75;4970231;28;20189;-73
2022/07/05 09:16:08;;;;;;;0.90;0.60;;;;;;;21.50;44.80;102123.56;4969996;28;20180;-73
2022/07/05 09:18:40;;;;;;;2.30;0.60;;;;;;;21.21;44.12;102121.94;4968551;28;20956;-73
2022/07/05 09:21:20;;;;;;;2.73;0.60;;;;;;;21.59;45.00;102122.66;4953469;28;20213;-73
2022/07/05 09:24:13;;;;;;;1.73;0.70;;;;;;;22.73;43.08;102116.63;4951293;28;20677;-73
2022/07/05 09:26:44;;;;;;;2.57;0.60;;;;;;;23.27;42.82;102116.06;4949373;28;20497;-73
2022/07/05 09:29:12;;;;;;;1.13;0.70;;;;;;;23.25;40.35;102115.19;4951173;28;20197;-72
2022/07/05 09:31:47;;;;;;;2.37;0.77;;;;;;;23.20;40.31;102116.16;4951050;29;20202;-74
2022/07/05 09:34:14;;;;;;;5.90;0.80;;;;;;;23.79;39.92;102105.75;4950843;28;20390;-72
2022/07/05 09:37:12;;;;;;;0.60;0.60;;;;;;;23.50;40.29;102111.41;4950794;28;20181;-71
2022/07/05 09:39:39;;;;;;;2.80;0.67;;;;;;;23.41;38.48;102113.25;4938497;28;20793;-71
2022/07/05 09:42:25;;;;;;;1.37;0.60;;;;;;;24.13;39.11;102109.63;4954203;28;20189;-71
2022/07/05 09:44:56;;;;;;;1.52;0.60;;;;;;;25.21;38.09;102095.41;4954205;28;20201;-72
2022/07/05 09:47:24;;;;;;;1.02;0.60;;;;;;;24.86;37.78;102097.84;4953980;28;20259;-71
2022/07/05 09:49:54;;;;;;;1.48;0.60;;;;;;;24.15;37.79;102102.59;4953435;28;20669;-72
2022/07/05 09:52:26;;;;;;;1.43;0.83;;;;;;;22.85;39.92;102116.50;4953926;28;20196;-71
2022/07/05 09:55:08;;;;;;;1.43;0.50;;;;;;;22.25;41.84;102119.66;4953567;28;20817;-71
2022/07/05 09:57:41;;;;;;;2.17;0.70;;;;;;;22.64;42.95;102127.16;4953564;28;20698;-71
2022/07/05 10:00:10;;;;;;;2.70;0.77;;;;;;;22.82;42.19;102128.72;4955605;28;20197;-70
2022/07/05 10:02:52;;;;;;;1.60;0.60;;;;;;;22.94;42.19;102132.09;4953642;28;20196;-75
2022/07/05 10:05:18;;;;;;;2.57;0.93;;;;;;;23.38;42.37;102129.00;4944043;29;20228;-74
2022/07/05 10:07:51;;;;;;;1.93;0.70;;;;;;;24.31;40.15;102117.19;4953056;28;20216;-74
2022/07/05 10:10:18;;;;;;;1.88;0.77;;;;;;;24.99;38.80;102120.34;4953401;29;20181;-74
2022/07/05 10:12:46;;;;;;;1.20;0.70;;;;;;;24.58;38.77;102121.97;4953104;28;20635;-73
2022/07/05 10:15:14;;;;;;;0.70;0.60;;;;;;;23.96;39.09;102128.22;4953614;29;20209;-74
2022/07/05 10:17:44;;;;;;;0.82;0.63;;;;;;;23.61;39.88;102140.88;4952485;28;20204;-73
2022/07/05 10:20:19;;;;;;;3.33;0.70;;;;;;;24.18;39.29;102128.75;4951910;29;20734;-73
2022/07/05 10:22:46;;;;;;;2.15;0.50;;;;;;;24.78;39.81;102130.38;4952830;28;20176;-73
2022/07/05 10:25:13;;;;;;;1.67;0.82;;;;;;;25.09;38.49;102123.66;4953187;29;20299;-73
2022/07/05 10:27:39;;;;;;;2.50;0.63;;;;;;;25.22;37.73;102112.88;4953298;28;20228;-73
2022/07/05 10:30:07;;;;;;;1.58;0.50;;;;;;;24.88;36.90;102114.44;4952660;28;20589;-75
2022/07/05 10:32:34;;;;;;;0.88;0.50;;;;;;;24.60;38.04;102117.59;4953299;28;20201;-73
2022/07/05 10:35:02;;;;;;;3.38;0.75;;;;;;;24.90;36.66;102128.38;4952704;28;20189;-72
2022/07/05 10:37:30;;;;;;;1.65;0.60;;;;;;;24.76;37.92;102119.91;4953140;28;20204;-72
2022/07/05 10:39:58;;;;;;;4.25;0.70;;;;;;;25.36;37.07;102112.59;4952725;28;20256;-73
2022/07/05 10:42:26;;;;;;;2.25;0.70;;;;;;;24.65;36.53;102121.88;4952864;28;20189;-73
2022/07/05 10:44:52;;;;;;;1.25;0.70;;;;;;;25.54;36.83;102113.09;4952799;28;20704;-72
2022/07/05 10:47:19;;;;;;;1.13;0.70;;;;;;;25.49;36.60;102114.09;4952420;29;20296;-75
2022/07/05 10:50:00;;;;;;;1.83;0.70;;;;;;;25.54;37.05;102107.84;4952756;28;20228;-73
2022/07/05 10:52:26;;;;;;;2.58;0.80;;;;;;;25.10;37.03;102113.09;4950653;28;20970;-74
2022/07/05 10:55:16;;;;;;;1.25;0.70;;;;;;;25.56;36.12;102113.91;4952816;28;20181;-74
2022/07/05 10:57:42;;;;;;;1.05;0.47;;;;;;;25.61;36.59;102111.22;4951527;29;20220;-74
2022/07/05 11:00:11;;;;;;;3.67;1.27;;;;;;;24.63;37.87;102107.06;4954250;28;20200;-72
2022/07/05 11:02:38;;;;;;;5.80;2.38;;;;;;;24.21;39.00;102113.84;4952119;28;20647;-73
2022/07/05 11:05:04;;;;;;;5.07;1.88;;;;;;;24.67;38.01;102101.72;4952265;29;20216;-73
2022/07/05 11:07:58;;;;;;;2.13;0.52;;;;;;;25.57;39.15;102099.03;4951162;28;20236;-72
2022/07/05 11:10:23;;;;;;;3.50;0.80;;;;;;;25.62;36.83;102099.81;4952203;28;20559;-73
2022/07/05 11:12:49;;;;;;;1.00;0.85;;;;;;;25.64;35.64;102101.50;4983218;28;20197;-73
2022/07/05 11:15:14;;;;;;;1.25;0.65;;;;;;;25.33;36.22;102096.94;4951770;28;20180;-72
2022/07/05 11:17:40;;;;;;;1.58;0.60;;;;;;;24.78;37.14;102093.66;4983350;28;20762;-72
2022/07/05 11:20:11;;;;;;;2.92;0.93;;;;;;;24.73;36.97;102096.34;4940173;28;20659;-73
2022/07/05 11:22:59;;;;;;;2.85;0.60;;;;;;;25.09;38.57;102081.69;4952340;28;20180;-72
2022/07/05 11:25:27;;;;;;;2.70;0.95;;;;;;;24.71;38.82;102081.56;4951609;28;20209;-73
2022/07/05 11:28:00;;;;;;;2.00;0.60;;;;;;;24.82;36.71;102079.63;4966961;28;20213;-73
2022/07/05 11:30:26;;;;;;;0.90;0.65;;;;;;;25.25;38.02;102081.34;4940451;28;20924;-72